createdAt,value
2023-02-13T00:00:46.703Z,87.57
2023-02-13T00:02:49.643Z,96.63
2023-02-13T00:04:52.690Z,95.47
2023-02-13T00:06:55.681Z,95.15
2023-02-13T00:09:00.229Z,99.88
2023-02-13T00:11:03.049Z,100.20
2023-02-13T00:13:06.119Z,97.05
2023-02-13T00:15:09.600Z,89.10
2023-02-13T00:17:12.590Z,92.65
2023-02-13T00:19:15.386Z,93.38
2023-02-13T00:21:18.371Z,95.70
2023-02-13T00:23:21.282Z,90.90
2023-02-13T00:25:25.732Z,89.80
2023-02-13T00:27:28.740Z,84.43
2023-02-13T00:29:31.679Z,72.07
2023-02-13T00:31:34.594Z,70.72
2023-02-13T00:33:38.563Z,72.97
2023-02-13T00:35:41.515Z,63.10
2023-02-13T00:37:44.436Z,78.80
2023-02-13T00:39:47.251Z,72.72
2023-02-13T00:41:51.714Z,67.93
2023-02-13T00:43:55.474Z,71.07
2023-02-13T00:45:59.150Z,74.63
2023-02-13T00:48:02.117Z,77.88
2023-02-13T00:50:06.129Z,75.75
2023-02-13T00:52:08.996Z,64.57
2023-02-13T00:54:12.191Z,65.55
2023-02-13T00:56:15.182Z,62.03
2023-02-13T00:58:22.479Z,62.63
2023-02-13T01:00:27.067Z,53.72
2023-02-13T01:02:29.993Z,52.85
2023-02-13T01:04:32.837Z,51.63
2023-02-13T01:06:36.035Z,51.40
2023-02-13T01:08:40.785Z,46.58
2023-02-13T01:10:46.829Z,47.08
2023-02-13T01:12:49.713Z,51.05
2023-02-13T01:14:54.158Z,48.33
2023-02-13T01:16:57.250Z,46.10
2023-02-13T01:19:01.131Z,47.92
2023-02-13T01:21:13.239Z,45.78
2023-02-13T01:23:16.141Z,44.05
2023-02-13T01:25:20.058Z,43.55
2023-02-13T01:27:23.126Z,44.70
2023-02-13T01:29:26.882Z,45.13
2023-02-13T01:31:31.555Z,44.05
2023-02-13T01:33:36.399Z,44.95
2023-02-13T01:35:40.430Z,44.55
2023-02-13T01:37:45.879Z,45.53
2023-02-13T01:39:49.197Z,44.67
2023-02-13T01:41:52.016Z,46.55
2023-02-13T01:43:57.502Z,46.92
2023-02-13T01:46:02.364Z,43.50
2023-02-13T01:48:11.686Z,45.28
2023-02-13T01:50:19.318Z,43.88
2023-02-13T01:52:22.318Z,44.22
2023-02-13T01:54:31.527Z,45.15
2023-02-13T01:56:41.832Z,44.47
2023-02-13T01:58:47.913Z,43.45
2023-02-13T02:00:51.150Z,43.33
2023-02-13T02:02:58.314Z,44.30
2023-02-13T02:05:06.671Z,43.65
2023-02-13T02:07:15.032Z,43.85
2023-02-13T02:09:21.632Z,42.90
2023-02-13T02:11:32.033Z,42.15
2023-02-13T02:13:35.117Z,43.35
2023-02-13T02:15:43.584Z,42.90
2023-02-13T02:17:46.722Z,42.92
2023-02-13T02:20:00.690Z,43.00
2023-02-13T02:24:52.837Z,40.92
2023-02-13T02:27:39.373Z,41.45
2023-02-13T02:30:18.425Z,41.80
2023-02-13T02:32:46.725Z,41.40
2023-02-13T02:34:56.940Z,38.78
2023-02-13T02:37:13.918Z,39.85
2023-02-13T02:39:27.597Z,44.88
2023-02-13T02:41:42.000Z,45.78
2023-02-13T02:43:59.591Z,47.15
2023-02-13T02:46:12.967Z,49.55
2023-02-13T02:48:45.076Z,47.95
2023-02-13T02:50:53.076Z,45.80
2023-02-13T02:53:08.277Z,45.15
2023-02-13T02:55:25.754Z,43.53
2023-02-13T02:57:52.146Z,48.88
2023-02-13T03:00:16.708Z,47.65
2023-02-13T03:02:38.273Z,49.63
2023-02-13T03:05:05.380Z,47.85
2023-02-13T03:07:10.113Z,45.10
2023-02-13T03:09:35.553Z,42.40
2023-02-13T03:11:58.035Z,42.65
2023-02-13T03:14:04.555Z,38.47
2023-02-13T03:16:31.316Z,36.72
2023-02-13T03:18:55.993Z,38.20
2023-02-13T03:21:29.862Z,40.78
2023-02-13T03:23:48.685Z,36.58
2023-02-13T03:26:13.432Z,36.15
2023-02-13T03:28:42.072Z,35.92
2023-02-13T03:30:57.481Z,35.17
2023-02-13T03:33:15.312Z,36.20
2023-02-13T03:35:46.614Z,35.30
2023-02-13T03:37:58.603Z,35.20
2023-02-13T03:40:06.019Z,35.88
2023-02-13T03:42:15.555Z,35.53
2023-02-13T03:44:24.032Z,33.72
2023-02-13T03:46:29.792Z,35.47
2023-02-13T03:51:10.832Z,33.40
2023-02-13T03:55:40.911Z,33.72
2023-02-13T03:58:04.604Z,38.10
2023-02-13T04:00:11.631Z,34.60
2023-02-13T04:02:23.238Z,34.38
2023-02-13T04:04:31.992Z,35.42
2023-02-13T04:06:38.662Z,37.28
2023-02-13T04:08:43.556Z,37.70
2023-02-13T04:10:53.238Z,44.22
2023-02-13T04:13:07.563Z,45.35
2023-02-13T04:15:16.512Z,47.75
2023-02-13T04:17:24.490Z,48.30
2023-02-13T04:19:27.900Z,52.47
2023-02-13T04:21:34.030Z,60.33
2023-02-13T04:23:37.120Z,58.63
2023-02-13T04:25:44.799Z,58.03
2023-02-13T04:27:47.651Z,59.42
2023-02-13T04:29:50.616Z,55.20
2023-02-13T04:31:53.897Z,52.60
2023-02-13T04:33:56.792Z,52.53
2023-02-13T04:35:59.675Z,50.85
2023-02-13T04:38:02.715Z,44.25
2023-02-13T04:40:06.643Z,43.67
2023-02-13T04:42:11.068Z,44.60
2023-02-13T04:44:13.916Z,45.72
2023-02-13T04:46:17.021Z,43.67
2023-02-13T04:48:19.866Z,44.42
2023-02-13T04:50:23.996Z,40.55
2023-02-13T04:52:27.037Z,40.80
2023-02-13T04:54:29.994Z,37.70
2023-02-13T04:56:33.031Z,33.75
2023-02-13T04:58:37.656Z,31.45
2023-02-13T05:00:41.076Z,32.13
2023-02-13T05:02:44.078Z,30.00
2023-02-13T05:04:47.198Z,27.95
2023-02-13T05:06:50.117Z,28.95
2023-02-13T05:08:53.074Z,27.35
2023-02-13T05:10:56.476Z,28.30
2023-02-13T05:12:59.943Z,26.60
2023-02-13T05:15:04.843Z,27.67
2023-02-13T05:17:07.904Z,29.75
2023-02-13T05:19:11.090Z,28.85
2023-02-13T05:21:32.953Z,25.48
2023-02-13T05:23:35.954Z,24.60
2023-02-13T05:25:41.719Z,27.30
2023-02-13T05:27:44.623Z,27.05
2023-02-13T05:29:48.154Z,24.77
2023-02-13T05:31:54.420Z,26.50
2023-02-13T05:33:57.475Z,24.95
2023-02-13T05:36:00.368Z,24.20
2023-02-13T05:38:03.598Z,24.73
2023-02-13T05:40:08.007Z,24.75
2023-02-13T05:42:11.041Z,23.63
2023-02-13T05:44:15.037Z,25.92
2023-02-13T05:46:18.421Z,25.45
2023-02-13T05:48:22.908Z,25.33
2023-02-13T05:50:26.002Z,25.00
2023-02-13T05:52:31.599Z,25.55
2023-02-13T05:54:34.442Z,23.38
2023-02-13T05:56:37.320Z,24.83
2023-02-13T05:58:40.405Z,27.33
2023-02-13T06:00:43.313Z,21.23
2023-02-13T06:02:46.252Z,23.90
2023-02-13T06:04:50.654Z,24.73
2023-02-13T06:06:53.669Z,24.88
2023-02-13T06:08:56.834Z,22.92
2023-02-13T06:10:59.991Z,23.65
2023-02-13T06:13:03.041Z,21.58
2023-02-13T06:15:07.433Z,21.38
2023-02-13T06:17:10.642Z,22.33
2023-02-13T06:19:13.502Z,23.85
2023-02-13T06:21:17.993Z,23.23
2023-02-13T06:23:20.952Z,22.23
2023-02-13T06:25:24.311Z,21.98
2023-02-13T06:27:27.373Z,22.60
2023-02-13T06:29:31.792Z,23.00
2023-02-13T06:31:35.068Z,21.73
2023-02-13T06:33:38.050Z,21.85
2023-02-13T06:35:40.942Z,21.98
2023-02-13T06:37:45.723Z,21.75
2023-02-13T06:39:48.595Z,22.57
2023-02-13T06:41:51.415Z,22.85
2023-02-13T06:43:54.653Z,23.10
2023-02-13T06:45:57.592Z,24.02
2023-02-13T06:48:00.752Z,24.10
2023-02-13T06:50:03.796Z,22.40
2023-02-13T06:52:06.634Z,22.42
2023-02-13T06:54:11.037Z,22.77
2023-02-13T06:56:14.192Z,22.38
2023-02-13T06:58:17.074Z,21.17
2023-02-13T07:00:21.244Z,21.83
2023-02-13T07:02:24.237Z,20.88
2023-02-13T07:04:28.382Z,22.45
2023-02-13T07:06:32.429Z,42.35
2023-02-13T07:08:36.004Z,23.73
2023-02-13T07:10:41.536Z,24.10
2023-02-13T07:12:45.773Z,21.95
2023-02-13T07:14:52.363Z,21.27
2023-02-13T07:16:55.197Z,22.85
2023-02-13T07:18:58.194Z,22.48
2023-02-13T07:21:01.154Z,21.52
2023-02-13T07:23:05.992Z,23.33
2023-02-13T07:25:09.272Z,22.40
2023-02-13T07:27:13.883Z,22.70
2023-02-13T07:29:16.913Z,25.05
2023-02-13T07:31:19.968Z,26.80
2023-02-13T07:33:23.833Z,28.40
2023-02-13T07:35:26.793Z,28.08
2023-02-13T07:37:29.975Z,31.83
2023-02-13T07:39:33.161Z,29.50
2023-02-13T07:41:36.082Z,23.00
2023-02-13T07:43:40.532Z,21.73
2023-02-13T07:45:43.450Z,23.77
2023-02-13T07:47:46.517Z,25.23
2023-02-13T07:49:49.443Z,26.25
2023-02-13T07:51:52.341Z,33.20
2023-02-13T07:53:56.597Z,24.17
2023-02-13T07:56:00.293Z,25.17
2023-02-13T07:58:03.203Z,22.23
2023-02-13T08:00:09.479Z,21.60
2023-02-13T08:02:16.447Z,19.08
2023-02-13T08:04:19.453Z,20.20
2023-02-13T08:06:22.809Z,19.75
2023-02-13T08:08:25.779Z,20.83
2023-02-13T08:10:47.401Z,19.67
2023-02-13T08:12:51.248Z,18.98
2023-02-13T08:14:54.534Z,21.00
2023-02-13T08:16:59.545Z,21.00
2023-02-13T08:19:02.435Z,17.67
2023-02-13T08:21:05.674Z,17.23
2023-02-13T08:23:12.460Z,16.58
2023-02-13T08:25:15.834Z,16.58
2023-02-13T08:27:18.655Z,17.65
2023-02-13T08:29:21.681Z,16.65
2023-02-13T08:31:24.989Z,15.73
2023-02-13T08:33:30.668Z,15.05
2023-02-13T08:37:36.284Z,15.43
2023-02-13T08:39:39.342Z,16.55
2023-02-13T08:41:43.955Z,18.08
2023-02-13T08:43:46.901Z,20.50
2023-02-13T08:45:50.208Z,19.10
2023-02-13T08:47:56.872Z,17.42
2023-02-13T08:50:01.393Z,17.73
2023-02-13T08:52:04.960Z,19.25
2023-02-13T08:54:07.914Z,19.70
2023-02-13T08:56:11.883Z,20.30
2023-02-13T08:58:14.833Z,19.17
2023-02-13T09:00:17.952Z,18.98
2023-02-13T09:02:21.152Z,18.75
2023-02-13T09:04:24.076Z,17.52
2023-02-13T09:06:28.814Z,16.20
2023-02-13T09:08:32.275Z,15.40
2023-02-13T09:10:35.392Z,15.90
2023-02-13T09:12:38.435Z,16.30
2023-02-13T09:14:41.422Z,16.35
2023-02-13T09:16:44.341Z,17.05
2023-02-13T09:18:47.763Z,15.35
2023-02-13T09:20:50.645Z,14.30
2023-02-13T09:22:56.199Z,15.00
2023-02-13T09:25:01.399Z,15.43
2023-02-13T09:27:05.637Z,14.93
2023-02-13T09:29:08.561Z,15.45
2023-02-13T09:31:13.037Z,15.85
2023-02-13T09:33:16.244Z,15.95
2023-02-13T09:35:19.838Z,16.33
2023-02-13T09:37:23.758Z,14.68
2023-02-13T09:39:28.240Z,15.18
2023-02-13T09:41:36.243Z,15.20
2023-02-13T09:43:46.213Z,15.32
2023-02-13T09:45:52.717Z,15.40
2023-02-13T09:47:55.694Z,14.98
2023-02-13T09:50:03.165Z,13.65
2023-02-13T09:52:06.243Z,12.43
2023-02-13T09:54:14.163Z,12.98
2023-02-13T09:56:25.158Z,15.38
2023-02-13T09:58:40.642Z,16.83
2023-02-13T10:00:47.158Z,17.08
2023-02-13T10:03:28.376Z,18.60
2023-02-13T10:05:46.998Z,17.88
2023-02-13T10:08:00.557Z,15.43
2023-02-13T10:10:15.317Z,16.80
2023-02-13T10:12:31.237Z,15.82
2023-02-13T10:14:46.111Z,15.00
2023-02-13T10:16:53.841Z,17.90
2023-02-13T10:19:03.719Z,14.55
2023-02-13T10:21:09.007Z,19.77
2023-02-13T10:23:25.199Z,17.60
2023-02-13T10:25:31.518Z,17.75
2023-02-13T10:27:41.681Z,22.38
2023-02-13T10:30:07.280Z,18.30
2023-02-13T10:32:14.649Z,15.35
2023-02-13T10:34:18.564Z,14.18
2023-02-13T10:36:24.797Z,14.30
2023-02-13T10:38:31.918Z,17.88
2023-02-13T10:40:39.719Z,20.00
2023-02-13T10:42:46.164Z,18.58
2023-02-13T10:45:09.507Z,17.42
2023-02-13T10:47:23.170Z,17.27
2023-02-13T10:49:42.923Z,15.80
2023-02-13T10:51:52.668Z,17.98
2023-02-13T10:54:21.480Z,17.95
2023-02-13T10:56:29.637Z,19.65
2023-02-13T10:58:47.756Z,19.02
2023-02-13T11:00:56.635Z,22.88
2023-02-13T11:03:00.340Z,20.33
2023-02-13T11:05:14.242Z,17.38
2023-02-13T11:07:24.652Z,16.73
2023-02-13T11:09:28.806Z,19.90
2023-02-13T11:11:34.656Z,18.35
2023-02-13T11:13:39.289Z,18.48
2023-02-13T11:15:42.365Z,17.13
2023-02-13T11:17:47.008Z,18.50
2023-02-13T11:19:52.024Z,18.80
2023-02-13T11:21:56.807Z,18.50
2023-02-13T11:23:59.887Z,20.77
2023-02-13T11:26:05.407Z,21.73
2023-02-13T11:30:34.035Z,22.70
2023-02-13T11:32:37.008Z,23.58
2023-02-13T11:34:40.034Z,39.38
2023-02-13T11:36:43.289Z,41.17
2023-02-13T11:38:46.328Z,38.00
2023-02-13T11:40:53.371Z,29.35
2023-02-13T11:42:56.371Z,30.83
2023-02-13T11:45:03.008Z,27.90
2023-02-13T11:47:08.007Z,27.65
2023-02-13T11:49:19.577Z,37.42
2023-02-13T11:51:36.377Z,33.45
2023-02-13T11:53:40.830Z,30.25
2023-02-13T11:55:46.140Z,33.67
2023-02-13T11:57:58.714Z,26.52
2023-02-13T12:00:23.690Z,28.77
2023-02-13T12:02:46.429Z,26.35
2023-02-13T12:04:50.940Z,27.23
2023-02-13T12:07:03.492Z,30.10
2023-02-13T12:09:13.494Z,31.52
2023-02-13T12:11:24.454Z,32.90
2023-02-13T12:13:32.173Z,30.77
2023-02-13T12:15:37.414Z,31.35
2023-02-13T12:17:45.423Z,28.48
2023-02-13T12:19:52.634Z,31.65
2023-02-13T12:22:18.319Z,26.98
2023-02-13T12:24:41.889Z,25.60
2023-02-13T12:26:49.182Z,22.77
2023-02-13T12:29:20.111Z,23.58
2023-02-13T12:31:37.666Z,21.33
2023-02-13T12:34:03.413Z,22.10
2023-02-13T12:36:14.974Z,19.47
2023-02-13T12:38:32.256Z,19.92
2023-02-13T12:40:59.911Z,19.63
2023-02-13T12:43:22.652Z,16.38
2023-02-13T12:45:34.092Z,13.25
2023-02-13T12:47:45.091Z,18.15
2023-02-13T12:50:17.813Z,17.02
2023-02-13T12:52:34.611Z,14.98
2023-02-13T12:54:50.248Z,12.50
2023-02-13T12:57:15.652Z,11.45
2023-02-13T12:59:30.514Z,12.27
2023-02-13T13:01:50.292Z,3.70
2023-02-13T13:04:09.293Z,11.98
2023-02-13T13:06:30.258Z,9.52
2023-02-13T13:08:51.693Z,10.63
2023-02-13T13:11:05.684Z,9.93
2023-02-13T13:13:22.296Z,8.50
2023-02-13T13:15:35.332Z,6.82
2023-02-13T13:17:54.294Z,8.18
2023-02-13T13:20:14.854Z,10.20
2023-02-13T13:22:27.213Z,8.23
2023-02-13T13:24:40.006Z,6.90
2023-02-13T13:26:45.463Z,9.88
2023-02-13T13:28:51.655Z,8.25
2023-02-13T13:30:54.753Z,8.75
2023-02-13T13:33:03.273Z,6.90
2023-02-13T13:35:06.957Z,5.70
2023-02-13T13:37:19.742Z,6.38
2023-02-13T13:39:37.813Z,8.02
2023-02-13T13:41:48.819Z,6.65
2023-02-13T13:44:03.512Z,6.07
2023-02-13T13:46:13.862Z,5.93
2023-02-13T13:48:49.314Z,5.93
2023-02-13T13:50:53.094Z,9.88
2023-02-13T13:53:11.853Z,5.60
2023-02-13T13:56:00.416Z,6.32
2023-02-13T13:58:03.372Z,8.07
2023-02-13T14:00:29.898Z,5.43
2023-02-13T14:02:45.384Z,6.22
2023-02-13T14:05:03.303Z,5.13
2023-02-13T14:07:23.242Z,4.40
2023-02-13T14:09:40.533Z,5.10
2023-02-13T14:11:47.286Z,4.70
2023-02-13T14:13:50.666Z,4.45
2023-02-13T14:15:55.500Z,3.58
2023-02-13T14:18:01.689Z,4.63
2023-02-13T14:20:21.211Z,4.03
2023-02-13T14:22:34.729Z,4.03
2023-02-13T14:24:37.847Z,4.22
2023-02-13T14:26:41.863Z,4.68
2023-02-13T14:28:57.798Z,5.32
2023-02-13T14:31:07.868Z,5.32
2023-02-13T14:33:26.049Z,5.68
2023-02-13T14:35:32.506Z,5.68
2023-02-13T14:37:47.630Z,7.28
2023-02-13T14:40:26.645Z,6.03
2023-02-13T14:42:30.886Z,6.13
2023-02-13T14:44:39.885Z,5.90
2023-02-13T14:46:48.752Z,5.43
2023-02-13T14:48:57.129Z,5.32
2023-02-13T14:51:00.751Z,4.95
2023-02-13T14:53:14.771Z,5.28
2023-02-13T14:55:28.163Z,5.88
2023-02-13T14:57:37.018Z,5.15
2023-02-13T14:59:46.082Z,4.72
2023-02-13T15:01:53.161Z,5.57
2023-02-13T15:04:05.836Z,5.78
2023-02-13T15:06:26.895Z,7.57
2023-02-13T15:08:35.217Z,10.80
2023-02-13T15:10:44.415Z,9.32
2023-02-13T15:12:56.377Z,10.18
2023-02-13T15:15:03.935Z,11.60
2023-02-13T15:17:13.168Z,12.85
2023-02-13T15:19:18.096Z,18.42
2023-02-13T15:21:24.754Z,18.63
2023-02-13T15:23:31.459Z,19.33
2023-02-13T15:25:37.640Z,15.10
2023-02-13T15:27:44.097Z,12.30
2023-02-13T15:29:59.394Z,15.60
2023-02-13T15:32:18.610Z,17.15
2023-02-13T15:34:24.850Z,15.85
2023-02-13T15:36:36.929Z,17.25
2023-02-13T15:38:40.028Z,23.33
2023-02-13T15:40:44.342Z,30.38
2023-02-13T15:42:47.452Z,32.63
2023-02-13T15:44:53.447Z,27.30
2023-02-13T15:47:03.119Z,25.42
2023-02-13T15:49:12.590Z,32.17
2023-02-13T15:51:20.570Z,29.17
2023-02-13T15:53:23.588Z,36.63
2023-02-13T15:55:28.958Z,36.45
2023-02-13T15:57:32.460Z,49.63
2023-02-13T15:59:37.847Z,43.53
2023-02-13T16:03:50.609Z,64.88
2023-02-13T16:05:55.331Z,63.33
2023-02-13T16:08:00.098Z,78.03
2023-02-13T16:10:15.719Z,87.30
2023-02-13T16:12:22.229Z,146.27
2023-02-13T16:14:27.567Z,150.18
2023-02-13T16:16:35.206Z,113.45
2023-02-13T16:18:40.428Z,83.72
2023-02-13T16:20:43.519Z,50.47
2023-02-13T16:22:50.179Z,53.45
2023-02-13T16:24:55.077Z,56.60
2023-02-13T16:26:58.172Z,88.88
2023-02-13T16:29:01.008Z,84.78
2023-02-13T16:31:05.438Z,99.57
2023-02-13T16:33:28.620Z,92.75
2023-02-13T16:35:35.995Z,80.82
2023-02-13T16:37:53.853Z,73.40
2023-02-13T16:39:57.005Z,61.05
2023-02-13T16:42:01.058Z,57.30
2023-02-13T16:44:04.767Z,57.92
2023-02-13T16:46:19.896Z,65.22
2023-02-13T16:48:22.983Z,83.95
2023-02-13T16:50:25.873Z,55.05
2023-02-13T16:52:28.946Z,48.20
2023-02-13T16:54:36.644Z,42.05
2023-02-13T16:56:41.774Z,39.53
2023-02-13T16:58:44.785Z,39.60
2023-02-13T17:00:50.699Z,50.78
2023-02-13T17:02:53.544Z,51.88
2023-02-13T17:05:00.196Z,50.60
2023-02-13T17:07:03.013Z,51.90
2023-02-13T17:09:06.133Z,52.80
2023-02-13T17:11:19.733Z,51.80
2023-02-13T17:13:24.196Z,54.50
2023-02-13T17:15:29.260Z,52.70
2023-02-13T17:17:32.933Z,45.42
2023-02-13T17:19:35.773Z,44.42
2023-02-13T17:21:39.505Z,40.80
2023-02-13T17:23:42.291Z,40.05
2023-02-13T17:25:47.844Z,39.20
2023-02-13T17:27:53.323Z,37.70
2023-02-13T17:31:58.890Z,31.08
2023-02-13T17:34:01.845Z,27.52
2023-02-13T17:36:05.613Z,25.95
2023-02-13T17:38:09.935Z,28.55
2023-02-13T17:40:16.917Z,29.10
2023-02-13T17:42:23.951Z,31.45
2023-02-13T17:44:28.423Z,37.92
2023-02-13T17:46:31.333Z,40.90
2023-02-13T17:48:34.509Z,39.65
2023-02-13T17:50:38.020Z,37.38
2023-02-13T17:52:42.505Z,33.22
2023-02-13T17:54:45.931Z,31.38
2023-02-13T17:56:48.708Z,31.30
2023-02-13T17:58:51.832Z,28.02
2023-02-13T18:00:56.786Z,26.65
2023-02-13T18:03:00.979Z,26.23
2023-02-13T18:05:03.748Z,24.67
2023-02-13T18:07:06.782Z,23.38
2023-02-13T18:09:09.718Z,24.92
2023-02-13T18:11:12.849Z,23.48
2023-02-13T18:13:15.967Z,22.70
2023-02-13T18:15:19.706Z,22.77
2023-02-13T18:17:24.678Z,24.35
2023-02-13T18:19:27.905Z,26.48
2023-02-13T18:21:30.727Z,26.33
2023-02-13T18:23:33.756Z,26.38
2023-02-13T18:25:36.699Z,26.33
2023-02-13T18:27:40.060Z,25.00
2023-02-13T18:29:43.298Z,25.85
2023-02-13T18:31:46.256Z,25.40
2023-02-13T18:33:50.734Z,23.88
2023-02-13T18:35:59.565Z,18.85
2023-02-13T18:38:02.497Z,20.25
2023-02-13T18:40:06.977Z,22.23
2023-02-13T18:42:09.812Z,22.85
2023-02-13T18:44:23.300Z,22.25
2023-02-13T18:46:30.958Z,19.05
2023-02-13T18:48:33.938Z,18.60
2023-02-13T18:50:39.809Z,19.85
2023-02-13T18:52:42.753Z,19.67
2023-02-13T18:54:46.168Z,20.75
2023-02-13T18:56:49.640Z,18.75
2023-02-13T18:58:52.875Z,18.63
2023-02-13T19:00:56.617Z,18.58
2023-02-13T19:03:00.305Z,18.67
2023-02-13T19:05:03.878Z,18.42
2023-02-13T19:07:08.262Z,20.80
2023-02-13T19:09:11.891Z,19.83
2023-02-13T19:11:16.729Z,21.85
2023-02-13T19:13:19.899Z,22.10
2023-02-13T19:15:22.733Z,25.02
2023-02-13T19:17:25.924Z,28.98
2023-02-13T19:19:29.002Z,34.92
2023-02-13T19:21:33.399Z,35.67
2023-02-13T19:23:38.811Z,39.70
2023-02-13T19:25:41.769Z,39.25
2023-02-13T19:27:44.774Z,36.63
2023-02-13T19:29:48.069Z,35.42
2023-02-13T19:31:50.922Z,31.35
2023-02-13T19:33:53.964Z,28.58
2023-02-13T19:36:03.386Z,28.40
2023-02-13T19:38:06.641Z,30.40
2023-02-13T19:40:12.642Z,33.28
2023-02-13T19:42:15.512Z,30.17
2023-02-13T19:44:18.365Z,31.40
2023-02-13T19:46:23.900Z,32.63
2023-02-13T19:48:27.332Z,32.13
2023-02-13T19:50:30.284Z,32.30
2023-02-13T19:52:33.453Z,33.72
2023-02-13T19:54:36.634Z,32.25
2023-02-13T19:56:41.252Z,34.90
2023-02-13T19:58:44.493Z,34.90
2023-02-13T20:00:47.414Z,36.75
2023-02-13T20:02:51.021Z,37.15
2023-02-13T20:04:53.848Z,36.92
2023-02-13T20:06:58.707Z,38.22
2023-02-13T20:09:05.209Z,37.75
2023-02-13T20:11:09.295Z,35.75
2023-02-13T20:13:13.893Z,35.47
2023-02-13T20:15:17.011Z,35.13
2023-02-13T20:17:19.791Z,32.47
2023-02-13T20:19:22.902Z,33.22
2023-02-13T20:21:26.610Z,32.85
2023-02-13T20:23:29.579Z,30.65
2023-02-13T20:25:33.253Z,31.17
2023-02-13T20:29:43.331Z,33.53
2023-02-13T20:31:46.359Z,35.03
2023-02-13T20:33:52.810Z,35.35
2023-02-13T20:35:56.450Z,34.65
2023-02-13T20:37:59.548Z,37.45
2023-02-13T20:40:02.781Z,40.30
2023-02-13T20:42:05.847Z,44.10
2023-02-13T20:44:12.649Z,33.05
2023-02-13T20:46:17.339Z,33.15
2023-02-13T20:48:20.348Z,34.07
2023-02-13T20:50:23.206Z,34.90
2023-02-13T20:52:26.186Z,36.88
2023-02-13T20:54:29.046Z,35.25
2023-02-13T20:56:32.406Z,34.38
2023-02-13T20:58:35.525Z,30.83
2023-02-13T21:00:38.680Z,29.58
2023-02-13T21:02:43.252Z,28.45
2023-02-13T21:04:46.227Z,28.37
2023-02-13T21:06:49.366Z,26.60
2023-02-13T21:08:52.857Z,27.73
2023-02-13T21:11:01.333Z,27.27
2023-02-13T21:13:04.697Z,27.15
2023-02-13T21:15:08.295Z,27.25
2023-02-13T21:17:11.265Z,27.20
2023-02-13T21:19:19.128Z,26.25
2023-02-13T21:21:26.804Z,25.20
2023-02-13T21:23:29.773Z,24.35
2023-02-13T21:25:33.643Z,26.08
2023-02-13T21:27:36.605Z,28.15
2023-02-13T21:29:39.690Z,31.15
2023-02-13T21:31:47.734Z,34.83
2023-02-13T21:33:50.814Z,41.45
2023-02-13T21:36:02.362Z,42.90
2023-02-13T21:38:05.296Z,42.13
2023-02-13T21:40:09.328Z,39.10
2023-02-13T21:42:12.219Z,40.17
2023-02-13T21:44:16.547Z,39.33
2023-02-13T21:46:21.384Z,37.80
2023-02-13T21:48:24.374Z,39.13
2023-02-13T21:50:27.334Z,37.83
2023-02-13T21:52:31.696Z,37.08
2023-02-13T21:54:34.695Z,33.35
2023-02-13T21:56:39.856Z,30.85
2023-02-13T21:58:43.975Z,27.83
2023-02-13T22:00:46.800Z,26.20
2023-02-13T22:02:49.773Z,26.70
2023-02-13T22:04:52.718Z,23.58
2023-02-13T22:06:55.657Z,21.83
2023-02-13T22:09:02.258Z,18.88
2023-02-13T22:11:05.998Z,18.88
2023-02-13T22:13:09.024Z,18.63
2023-02-13T22:15:11.922Z,19.15
2023-02-13T22:17:14.761Z,20.20
2023-02-13T22:19:18.354Z,19.23
2023-02-13T22:21:23.299Z,20.40
2023-02-13T22:23:26.383Z,20.95
2023-02-13T22:25:30.700Z,20.15
2023-02-13T22:27:33.660Z,18.85
2023-02-13T22:29:40.952Z,17.27
2023-02-13T22:31:44.904Z,17.45
2023-02-13T22:33:58.492Z,17.23
2023-02-13T22:36:06.782Z,16.83
2023-02-13T22:38:10.221Z,15.20
2023-02-13T22:40:13.701Z,15.50
2023-02-13T22:42:18.144Z,15.02
2023-02-13T22:44:21.073Z,16.35
2023-02-13T22:46:25.738Z,18.17
2023-02-13T22:48:28.869Z,21.05
2023-02-13T22:50:32.078Z,20.17
2023-02-13T22:52:35.093Z,19.30
2023-02-13T22:54:38.252Z,15.98
2023-02-13T22:56:41.182Z,16.67
2023-02-13T22:58:45.530Z,16.13
2023-02-13T23:00:48.539Z,15.88
2023-02-13T23:02:51.687Z,16.88
2023-02-13T23:04:54.568Z,18.35
2023-02-13T23:06:57.448Z,18.77
2023-02-13T23:09:00.737Z,20.10
2023-02-13T23:11:24.765Z,21.17
2023-02-13T23:13:27.846Z,20.60
2023-02-13T23:15:32.839Z,20.77
2023-02-13T23:17:54.173Z,20.48
2023-02-13T23:19:57.007Z,19.88
2023-02-13T23:22:00.391Z,17.95
2023-02-13T23:24:05.097Z,16.35
2023-02-13T23:26:08.846Z,16.13
2023-02-13T23:28:11.737Z,16.27
2023-02-13T23:30:16.469Z,17.15
2023-02-13T23:32:20.876Z,15.33
2023-02-13T23:34:23.929Z,16.48
2023-02-13T23:36:26.898Z,16.65
2023-02-13T23:38:29.873Z,15.63
2023-02-13T23:40:32.769Z,17.35
2023-02-13T23:42:35.846Z,16.00
2023-02-13T23:44:38.769Z,16.25
2023-02-13T23:46:41.822Z,15.65
2023-02-13T23:48:47.055Z,15.18
2023-02-13T23:50:53.445Z,15.68
2023-02-13T23:52:56.445Z,13.95
2023-02-13T23:54:59.406Z,14.50
2023-02-13T23:57:02.367Z,14.45
2023-02-13T23:59:05.287Z,14.65
